sensor_id;sensor_type;location;lat;lon;timestamp;P1;durP1;ratioP1;P2;durP2;ratioP2
42030;SDS011;27709;52.036;5.906;2023-12-04T00:00:07;45.00;;;19.92;;
42030;SDS011;27709;52.036;5.906;2023-12-04T00:02:33;38.80;;;18.15;;
42030;SDS011;27709;52.036;5.906;2023-12-04T00:04:59;46.63;;;20.95;;
42030;SDS011;27709;52.036;5.906;2023-12-04T00:07:24;44.53;;;20.20;;
42030;SDS011;27709;52.036;5.906;2023-12-04T00:09:50;44.47;;;19.75;;
42030;SDS011;27709;52.036;5.906;2023-12-04T00:12:16;41.00;;;19.23;;
42030;SDS011;27709;52.036;5.906;2023-12-04T00:14:41;44.33;;;19.38;;
42030;SDS011;27709;52.036;5.906;2023-12-04T00:17:07;44.50;;;20.35;;
42030;SDS011;27709;52.036;5.906;2023-12-04T00:19:32;45.15;;;19.77;;
42030;SDS011;27709;52.036;5.906;2023-12-04T00:21:58;46.10;;;20.33;;
42030;SDS011;27709;52.036;5.906;2023-12-04T00:24:24;39.65;;;18.38;;
42030;SDS011;27709;52.036;5.906;2023-12-04T00:26:49;41.70;;;18.42;;
42030;SDS011;27709;52.036;5.906;2023-12-04T00:29:15;43.95;;;19.50;;
42030;SDS011;27709;52.036;5.906;2023-12-04T00:31:40;42.00;;;19.75;;
42030;SDS011;27709;52.036;5.906;2023-12-04T00:34:06;40.97;;;19.40;;
42030;SDS011;27709;52.036;5.906;2023-12-04T00:36:31;46.53;;;21.48;;
42030;SDS011;27709;52.036;5.906;2023-12-04T00:38:57;42.83;;;19.35;;
42030;SDS011;27709;52.036;5.906;2023-12-04T00:41:23;38.70;;;18.88;;
42030;SDS011;27709;52.036;5.906;2023-12-04T00:43:48;39.85;;;19.17;;
42030;SDS011;27709;52.036;5.906;2023-12-04T00:46:14;41.63;;;19.40;;
42030;SDS011;27709;52.036;5.906;2023-12-04T00:48:39;41.67;;;19.58;;
42030;SDS011;27709;52.036;5.906;2023-12-04T00:51:05;42.75;;;19.00;;
42030;SDS011;27709;52.036;5.906;2023-12-04T00:53:31;41.53;;;18.63;;
42030;SDS011;27709;52.036;5.906;2023-12-04T00:55:57;37.53;;;17.83;;
42030;SDS011;27709;52.036;5.906;2023-12-04T00:58:22;40.17;;;19.23;;
42030;SDS011;27709;52.036;5.906;2023-12-04T01:00:48;39.33;;;18.35;;
42030;SDS011;27709;52.036;5.906;2023-12-04T01:03:15;38.78;;;17.50;;
42030;SDS011;27709;52.036;5.906;2023-12-04T01:05:41;37.08;;;17.48;;
42030;SDS011;27709;52.036;5.906;2023-12-04T01:08:07;42.95;;;20.67;;
42030;SDS011;27709;52.036;5.906;2023-12-04T01:10:32;38.13;;;18.13;;
42030;SDS011;27709;52.036;5.906;2023-12-04T01:12:58;39.60;;;19.20;;
42030;SDS011;27709;52.036;5.906;2023-12-04T01:15:24;42.38;;;18.08;;
42030;SDS011;27709;52.036;5.906;2023-12-04T01:17:49;41.92;;;18.52;;
42030;SDS011;27709;52.036;5.906;2023-12-04T01:20:15;36.95;;;17.20;;
42030;SDS011;27709;52.036;5.906;2023-12-04T01:22:41;40.88;;;19.08;;
42030;SDS011;27709;52.036;5.906;2023-12-04T01:25:06;42.88;;;19.60;;
42030;SDS011;27709;52.036;5.906;2023-12-04T01:27:33;44.28;;;19.88;;
42030;SDS011;27709;52.036;5.906;2023-12-04T01:30:00;37.72;;;17.58;;
42030;SDS011;27709;52.036;5.906;2023-12-04T01:32:26;41.10;;;19.10;;
42030;SDS011;27709;52.036;5.906;2023-12-04T01:34:52;42.90;;;20.33;;
42030;SDS011;27709;52.036;5.906;2023-12-04T01:37:17;39.05;;;17.95;;
42030;SDS011;27709;52.036;5.906;2023-12-04T01:39:43;42.78;;;19.77;;
42030;SDS011;27709;52.036;5.906;2023-12-04T01:42:09;42.85;;;18.83;;
42030;SDS011;27709;52.036;5.906;2023-12-04T01:44:35;36.50;;;18.17;;
42030;SDS011;27709;52.036;5.906;2023-12-04T01:47:02;40.75;;;18.38;;
42030;SDS011;27709;52.036;5.906;2023-12-04T01:49:28;43.70;;;19.38;;
42030;SDS011;27709;52.036;5.906;2023-12-04T01:51:54;40.45;;;18.20;;
42030;SDS011;27709;52.036;5.906;2023-12-04T01:54:20;39.80;;;19.48;;
42030;SDS011;27709;52.036;5.906;2023-12-04T01:56:46;40.00;;;20.05;;
42030;SDS011;27709;52.036;5.906;2023-12-04T01:59:12;40.53;;;18.42;;
42030;SDS011;27709;52.036;5.906;2023-12-04T02:01:38;41.33;;;18.52;;
42030;SDS011;27709;52.036;5.906;2023-12-04T02:04:05;38.35;;;17.77;;
42030;SDS011;27709;52.036;5.906;2023-12-04T02:06:31;37.63;;;18.17;;
42030;SDS011;27709;52.036;5.906;2023-12-04T02:08:56;38.55;;;17.17;;
42030;SDS011;27709;52.036;5.906;2023-12-04T02:11:22;35.60;;;17.05;;
42030;SDS011;27709;52.036;5.906;2023-12-04T02:13:48;36.58;;;17.10;;
42030;SDS011;27709;52.036;5.906;2023-12-04T02:16:14;42.85;;;18.45;;
42030;SDS011;27709;52.036;5.906;2023-12-04T02:18:41;35.40;;;16.25;;
42030;SDS011;27709;52.036;5.906;2023-12-04T02:21:08;39.65;;;18.05;;
42030;SDS011;27709;52.036;5.906;2023-12-04T02:23:33;36.67;;;17.70;;
42030;SDS011;27709;52.036;5.906;2023-12-04T02:26:00;35.72;;;17.27;;
42030;SDS011;27709;52.036;5.906;2023-12-04T02:28:39;37.28;;;17.58;;
42030;SDS011;27709;52.036;5.906;2023-12-04T02:31:06;33.85;;;16.83;;
42030;SDS011;27709;52.036;5.906;2023-12-04T02:33:32;37.30;;;18.75;;
42030;SDS011;27709;52.036;5.906;2023-12-04T02:35:59;33.05;;;16.42;;
42030;SDS011;27709;52.036;5.906;2023-12-04T02:38:27;35.28;;;15.43;;
42030;SDS011;27709;52.036;5.906;2023-12-04T02:40:53;34.22;;;16.58;;
42030;SDS011;27709;52.036;5.906;2023-12-04T02:43:20;33.25;;;17.67;;
42030;SDS011;27709;52.036;5.906;2023-12-04T02:45:45;33.20;;;16.23;;
42030;SDS011;27709;52.036;5.906;2023-12-04T02:48:12;38.05;;;17.77;;
42030;SDS011;27709;52.036;5.906;2023-12-04T02:50:38;32.25;;;15.43;;
42030;SDS011;27709;52.036;5.906;2023-12-04T02:53:04;36.25;;;17.58;;
42030;SDS011;27709;52.036;5.906;2023-12-04T02:55:29;33.78;;;16.35;;
42030;SDS011;27709;52.036;5.906;2023-12-04T02:57:55;34.72;;;17.05;;
42030;SDS011;27709;52.036;5.906;2023-12-04T03:00:20;37.20;;;15.95;;
42030;SDS011;27709;52.036;5.906;2023-12-04T03:02:46;30.80;;;15.00;;
42030;SDS011;27709;52.036;5.906;2023-12-04T03:05:11;30.65;;;16.05;;
42030;SDS011;27709;52.036;5.906;2023-12-04T03:07:37;31.80;;;16.48;;
42030;SDS011;27709;52.036;5.906;2023-12-04T03:10:02;29.52;;;14.68;;
42030;SDS011;27709;52.036;5.906;2023-12-04T03:12:28;34.33;;;15.20;;
42030;SDS011;27709;52.036;5.906;2023-12-04T03:14:54;33.60;;;15.43;;
42030;SDS011;27709;52.036;5.906;2023-12-04T03:17:20;32.65;;;15.27;;
42030;SDS011;27709;52.036;5.906;2023-12-04T03:19:45;29.88;;;13.75;;
42030;SDS011;27709;52.036;5.906;2023-12-04T03:22:11;29.10;;;14.75;;
42030;SDS011;27709;52.036;5.906;2023-12-04T03:24:37;28.92;;;14.40;;
42030;SDS011;27709;52.036;5.906;2023-12-04T03:27:03;28.77;;;14.50;;
42030;SDS011;27709;52.036;5.906;2023-12-04T03:29:29;30.42;;;14.75;;
42030;SDS011;27709;52.036;5.906;2023-12-04T03:31:54;28.73;;;13.85;;
42030;SDS011;27709;52.036;5.906;2023-12-04T03:34:20;29.85;;;15.48;;
42030;SDS011;27709;52.036;5.906;2023-12-04T03:36:45;28.92;;;14.50;;
42030;SDS011;27709;52.036;5.906;2023-12-04T03:39:11;32.17;;;14.05;;
42030;SDS011;27709;52.036;5.906;2023-12-04T03:41:36;29.55;;;14.75;;
42030;SDS011;27709;52.036;5.906;2023-12-04T03:44:02;28.20;;;14.02;;
42030;SDS011;27709;52.036;5.906;2023-12-04T03:46:28;32.75;;;15.18;;
42030;SDS011;27709;52.036;5.906;2023-12-04T03:48:53;25.70;;;13.63;;
42030;SDS011;27709;52.036;5.906;2023-12-04T03:51:20;28.13;;;14.48;;
42030;SDS011;27709;52.036;5.906;2023-12-04T03:53:45;34.70;;;16.08;;
42030;SDS011;27709;52.036;5.906;2023-12-04T03:56:11;28.92;;;14.25;;
42030;SDS011;27709;52.036;5.906;2023-12-04T03:58:37;27.48;;;13.35;;
42030;SDS011;27709;52.036;5.906;2023-12-04T04:01:03;27.92;;;13.65;;
42030;SDS011;27709;52.036;5.906;2023-12-04T04:03:29;27.58;;;13.88;;
42030;SDS011;27709;52.036;5.906;2023-12-04T04:05:55;28.63;;;14.18;;
42030;SDS011;27709;52.036;5.906;2023-12-04T04:08:20;26.42;;;13.10;;
42030;SDS011;27709;52.036;5.906;2023-12-04T04:10:46;27.65;;;13.00;;
42030;SDS011;27709;52.036;5.906;2023-12-04T04:13:11;24.40;;;12.45;;
42030;SDS011;27709;52.036;5.906;2023-12-04T04:15:37;25.95;;;12.95;;
42030;SDS011;27709;52.036;5.906;2023-12-04T04:18:02;28.05;;;14.00;;
42030;SDS011;27709;52.036;5.906;2023-12-04T04:20:28;27.35;;;13.80;;
42030;SDS011;27709;52.036;5.906;2023-12-04T04:22:54;27.10;;;13.65;;
42030;SDS011;27709;52.036;5.906;2023-12-04T04:25:19;24.08;;;13.23;;
42030;SDS011;27709;52.036;5.906;2023-12-04T04:27:47;26.33;;;12.73;;
42030;SDS011;27709;52.036;5.906;2023-12-04T04:30:12;24.83;;;13.05;;
42030;SDS011;27709;52.036;5.906;2023-12-04T04:32:38;25.98;;;13.45;;
42030;SDS011;27709;52.036;5.906;2023-12-04T04:35:04;26.83;;;13.48;;
42030;SDS011;27709;52.036;5.906;2023-12-04T04:37:30;27.33;;;13.23;;
42030;SDS011;27709;52.036;5.906;2023-12-04T04:39:55;25.08;;;13.32;;
42030;SDS011;27709;52.036;5.906;2023-12-04T04:42:22;24.90;;;13.77;;
42030;SDS011;27709;52.036;5.906;2023-12-04T04:44:47;25.20;;;13.70;;
42030;SDS011;27709;52.036;5.906;2023-12-04T04:47:13;26.77;;;14.05;;
42030;SDS011;27709;52.036;5.906;2023-12-04T04:49:38;23.10;;;12.50;;
42030;SDS011;27709;52.036;5.906;2023-12-04T04:52:04;26.50;;;14.27;;
42030;SDS011;27709;52.036;5.906;2023-12-04T04:54:33;25.00;;;13.27;;
42030;SDS011;27709;52.036;5.906;2023-12-04T04:56:58;27.98;;;13.93;;
42030;SDS011;27709;52.036;5.906;2023-12-04T04:59:24;24.42;;;12.80;;
42030;SDS011;27709;52.036;5.906;2023-12-04T05:01:50;23.77;;;12.43;;
42030;SDS011;27709;52.036;5.906;2023-12-04T05:04:15;25.70;;;13.25;;
42030;SDS011;27709;52.036;5.906;2023-12-04T05:06:41;25.48;;;12.35;;
42030;SDS011;27709;52.036;5.906;2023-12-04T05:09:07;26.20;;;13.07;;
42030;SDS011;27709;52.036;5.906;2023-12-04T05:11:32;23.80;;;12.02;;
42030;SDS011;27709;52.036;5.906;2023-12-04T05:13:58;24.70;;;12.48;;
42030;SDS011;27709;52.036;5.906;2023-12-04T05:16:23;22.95;;;11.98;;
42030;SDS011;27709;52.036;5.906;2023-12-04T05:18:49;24.48;;;12.18;;
42030;SDS011;27709;52.036;5.906;2023-12-04T05:21:14;23.38;;;12.02;;
42030;SDS011;27709;52.036;5.906;2023-12-04T05:23:40;21.05;;;11.45;;
42030;SDS011;27709;52.036;5.906;2023-12-04T05:26:06;19.00;;;11.23;;
42030;SDS011;27709;52.036;5.906;2023-12-04T05:28:32;19.33;;;10.85;;
42030;SDS011;27709;52.036;5.906;2023-12-04T05:30:59;21.42;;;11.02;;
42030;SDS011;27709;52.036;5.906;2023-12-04T05:33:24;20.52;;;10.77;;
42030;SDS011;27709;52.036;5.906;2023-12-04T05:35:50;23.98;;;11.35;;
42030;SDS011;27709;52.036;5.906;2023-12-04T05:38:17;22.30;;;11.38;;
42030;SDS011;27709;52.036;5.906;2023-12-04T05:40:43;21.45;;;11.68;;
42030;SDS011;27709;52.036;5.906;2023-12-04T05:43:08;22.75;;;11.98;;
42030;SDS011;27709;52.036;5.906;2023-12-04T05:45:34;20.63;;;11.27;;
42030;SDS011;27709;52.036;5.906;2023-12-04T05:48:00;21.55;;;11.13;;
42030;SDS011;27709;52.036;5.906;2023-12-04T05:50:26;20.67;;;10.73;;
42030;SDS011;27709;52.036;5.906;2023-12-04T05:52:51;21.38;;;10.95;;
42030;SDS011;27709;52.036;5.906;2023-12-04T05:55:17;19.67;;;10.50;;
42030;SDS011;27709;52.036;5.906;2023-12-04T05:57:43;18.98;;;9.75;;
42030;SDS011;27709;52.036;5.906;2023-12-04T06:00:09;21.92;;;11.25;;
42030;SDS011;27709;52.036;5.906;2023-12-04T06:02:42;19.75;;;10.15;;
42030;SDS011;27709;52.036;5.906;2023-12-04T06:05:08;19.90;;;10.32;;
42030;SDS011;27709;52.036;5.906;2023-12-04T06:07:35;18.02;;;10.30;;
42030;SDS011;27709;52.036;5.906;2023-12-04T06:10:01;20.45;;;10.55;;
42030;SDS011;27709;52.036;5.906;2023-12-04T06:12:29;21.58;;;11.05;;
42030;SDS011;27709;52.036;5.906;2023-12-04T06:14:55;19.25;;;10.88;;
42030;SDS011;27709;52.036;5.906;2023-12-04T06:17:21;18.48;;;9.98;;
42030;SDS011;27709;52.036;5.906;2023-12-04T06:19:46;18.92;;;9.73;;
42030;SDS011;27709;52.036;5.906;2023-12-04T06:22:12;19.27;;;9.77;;
42030;SDS011;27709;52.036;5.906;2023-12-04T06:24:38;17.02;;;9.30;;
42030;SDS011;27709;52.036;5.906;2023-12-04T06:27:04;19.77;;;10.30;;
42030;SDS011;27709;52.036;5.906;2023-12-04T06:29:31;16.10;;;9.45;;
42030;SDS011;27709;52.036;5.906;2023-12-04T06:31:57;20.05;;;10.07;;
42030;SDS011;27709;52.036;5.906;2023-12-04T06:34:23;20.63;;;9.88;;
42030;SDS011;27709;52.036;5.906;2023-12-04T06:36:49;17.92;;;9.60;;
42030;SDS011;27709;52.036;5.906;2023-12-04T06:39:15;17.50;;;9.57;;
42030;SDS011;27709;52.036;5.906;2023-12-04T06:41:42;17.13;;;9.18;;
42030;SDS011;27709;52.036;5.906;2023-12-04T06:44:09;15.93;;;9.15;;
42030;SDS011;27709;52.036;5.906;2023-12-04T06:46:38;15.10;;;9.00;;
42030;SDS011;27709;52.036;5.906;2023-12-04T06:49:06;17.80;;;9.43;;
42030;SDS011;27709;52.036;5.906;2023-12-04T06:51:34;14.95;;;8.48;;
42030;SDS011;27709;52.036;5.906;2023-12-04T06:53:59;16.75;;;9.00;;
42030;SDS011;27709;52.036;5.906;2023-12-04T06:56:25;17.23;;;9.32;;
42030;SDS011;27709;52.036;5.906;2023-12-04T06:58:51;16.98;;;8.88;;
42030;SDS011;27709;52.036;5.906;2023-12-04T07:01:16;15.40;;;8.90;;
42030;SDS011;27709;52.036;5.906;2023-12-04T07:03:42;18.38;;;9.23;;
42030;SDS011;27709;52.036;5.906;2023-12-04T07:06:07;15.57;;;8.75;;
42030;SDS011;27709;52.036;5.906;2023-12-04T07:08:33;17.00;;;8.50;;
42030;SDS011;27709;52.036;5.906;2023-12-04T07:10:59;18.38;;;8.25;;
42030;SDS011;27709;52.036;5.906;2023-12-04T07:13:24;18.08;;;9.32;;
42030;SDS011;27709;52.036;5.906;2023-12-04T07:15:50;17.13;;;8.82;;
42030;SDS011;27709;52.036;5.906;2023-12-04T07:18:16;14.35;;;8.52;;
42030;SDS011;27709;52.036;5.906;2023-12-04T07:20:41;12.93;;;7.47;;
42030;SDS011;27709;52.036;5.906;2023-12-04T07:23:07;16.90;;;8.48;;
42030;SDS011;27709;52.036;5.906;2023-12-04T07:25:33;16.10;;;8.13;;
42030;SDS011;27709;52.036;5.906;2023-12-04T07:27:58;15.30;;;8.43;;
42030;SDS011;27709;52.036;5.906;2023-12-04T07:30:24;17.65;;;8.43;;
42030;SDS011;27709;52.036;5.906;2023-12-04T07:32:50;14.43;;;8.25;;
42030;SDS011;27709;52.036;5.906;2023-12-04T07:35:16;15.10;;;8.00;;
42030;SDS011;27709;52.036;5.906;2023-12-04T07:37:43;15.95;;;8.10;;
42030;SDS011;27709;52.036;5.906;2023-12-04T07:40:09;14.13;;;7.28;;
42030;SDS011;27709;52.036;5.906;2023-12-04T07:42:35;14.38;;;7.78;;
42030;SDS011;27709;52.036;5.906;2023-12-04T07:45:01;13.38;;;7.72;;
42030;SDS011;27709;52.036;5.906;2023-12-04T07:47:27;14.07;;;7.80;;
42030;SDS011;27709;52.036;5.906;2023-12-04T07:49:53;15.05;;;7.18;;
42030;SDS011;27709;52.036;5.906;2023-12-04T07:52:18;12.85;;;7.20;;
42030;SDS011;27709;52.036;5.906;2023-12-04T07:54:44;15.75;;;8.88;;
42030;SDS011;27709;52.036;5.906;2023-12-04T07:57:09;16.13;;;7.60;;
42030;SDS011;27709;52.036;5.906;2023-12-04T07:59:35;13.05;;;7.07;;
42030;SDS011;27709;52.036;5.906;2023-12-04T08:02:00;14.93;;;7.30;;
42030;SDS011;27709;52.036;5.906;2023-12-04T08:04:26;16.58;;;8.00;;
42030;SDS011;27709;52.036;5.906;2023-12-04T08:06:52;10.88;;;6.85;;
42030;SDS011;27709;52.036;5.906;2023-12-04T08:09:18;12.60;;;7.82;;
42030;SDS011;27709;52.036;5.906;2023-12-04T08:11:43;13.73;;;8.00;;
42030;SDS011;27709;52.036;5.906;2023-12-04T08:14:09;12.05;;;6.65;;
42030;SDS011;27709;52.036;5.906;2023-12-04T08:16:34;14.65;;;7.78;;
42030;SDS011;27709;52.036;5.906;2023-12-04T08:19:00;13.75;;;6.63;;
42030;SDS011;27709;52.036;5.906;2023-12-04T08:21:25;13.07;;;7.65;;
42030;SDS011;27709;52.036;5.906;2023-12-04T08:23:51;14.30;;;7.25;;
42030;SDS011;27709;52.036;5.906;2023-12-04T08:26:23;14.55;;;7.72;;
42030;SDS011;27709;52.036;5.906;2023-12-04T08:28:50;13.77;;;7.35;;
42030;SDS011;27709;52.036;5.906;2023-12-04T08:31:19;12.55;;;6.68;;
42030;SDS011;27709;52.036;5.906;2023-12-04T08:33:44;13.77;;;7.63;;
42030;SDS011;27709;52.036;5.906;2023-12-04T08:36:10;15.98;;;8.52;;
42030;SDS011;27709;52.036;5.906;2023-12-04T08:38:37;14.27;;;7.68;;
42030;SDS011;27709;52.036;5.906;2023-12-04T08:41:03;14.15;;;7.50;;
42030;SDS011;27709;52.036;5.906;2023-12-04T08:43:29;14.25;;;7.93;;
42030;SDS011;27709;52.036;5.906;2023-12-04T08:45:55;13.88;;;7.88;;
42030;SDS011;27709;52.036;5.906;2023-12-04T08:48:20;14.45;;;7.85;;
42030;SDS011;27709;52.036;5.906;2023-12-04T08:50:47;14.07;;;7.45;;
42030;SDS011;27709;52.036;5.906;2023-12-04T08:53:13;14.70;;;7.63;;
42030;SDS011;27709;52.036;5.906;2023-12-04T08:55:38;14.75;;;7.88;;
42030;SDS011;27709;52.036;5.906;2023-12-04T08:58:04;13.27;;;7.97;;
42030;SDS011;27709;52.036;5.906;2023-12-04T09:00:29;14.13;;;8.38;;
42030;SDS011;27709;52.036;5.906;2023-12-04T09:02:55;13.15;;;7.72;;
42030;SDS011;27709;52.036;5.906;2023-12-04T09:05:21;12.85;;;7.50;;
42030;SDS011;27709;52.036;5.906;2023-12-04T09:07:47;13.60;;;7.95;;
42030;SDS011;27709;52.036;5.906;2023-12-04T09:10:12;14.02;;;7.68;;
42030;SDS011;27709;52.036;5.906;2023-12-04T09:12:38;13.82;;;7.60;;
42030;SDS011;27709;52.036;5.906;2023-12-04T09:15:05;13.63;;;7.53;;
42030;SDS011;27709;52.036;5.906;2023-12-04T09:17:31;14.15;;;7.88;;
42030;SDS011;27709;52.036;5.906;2023-12-04T09:19:56;12.90;;;7.85;;
42030;SDS011;27709;52.036;5.906;2023-12-04T09:22:22;16.20;;;8.50;;
42030;SDS011;27709;52.036;5.906;2023-12-04T09:24:48;16.50;;;8.20;;
42030;SDS011;27709;52.036;5.906;2023-12-04T09:27:13;13.18;;;7.72;;
42030;SDS011;27709;52.036;5.906;2023-12-04T09:29:40;15.20;;;8.50;;
42030;SDS011;27709;52.036;5.906;2023-12-04T09:32:06;13.30;;;7.25;;
42030;SDS011;27709;52.036;5.906;2023-12-04T09:34:31;15.60;;;9.07;;
42030;SDS011;27709;52.036;5.906;2023-12-04T09:36:57;14.85;;;8.45;;
42030;SDS011;27709;52.036;5.906;2023-12-04T09:39:23;15.73;;;8.20;;
42030;SDS011;27709;52.036;5.906;2023-12-04T09:41:48;13.93;;;7.82;;
42030;SDS011;27709;52.036;5.906;2023-12-04T09:44:16;12.77;;;7.25;;
42030;SDS011;27709;52.036;5.906;2023-12-04T09:46:42;15.77;;;8.15;;
42030;SDS011;27709;52.036;5.906;2023-12-04T09:49:08;15.68;;;8.23;;
42030;SDS011;27709;52.036;5.906;2023-12-04T09:51:35;13.90;;;7.85;;
42030;SDS011;27709;52.036;5.906;2023-12-04T09:54:03;15.70;;;8.07;;
42030;SDS011;27709;52.036;5.906;2023-12-04T09:56:29;13.48;;;7.80;;
42030;SDS011;27709;52.036;5.906;2023-12-04T09:58:58;13.70;;;8.15;;
42030;SDS011;27709;52.036;5.906;2023-12-04T10:01:25;14.18;;;7.97;;
42030;SDS011;27709;52.036;5.906;2023-12-04T10:03:53;14.40;;;8.50;;
42030;SDS011;27709;52.036;5.906;2023-12-04T10:06:22;15.40;;;8.27;;
42030;SDS011;27709;52.036;5.906;2023-12-04T10:08:51;14.52;;;8.52;;
42030;SDS011;27709;52.036;5.906;2023-12-04T10:11:18;14.48;;;7.80;;
42030;SDS011;27709;52.036;5.906;2023-12-04T10:13:43;12.57;;;7.72;;
42030;SDS011;27709;52.036;5.906;2023-12-04T10:16:09;15.88;;;7.97;;
42030;SDS011;27709;52.036;5.906;2023-12-04T10:18:35;14.23;;;8.27;;
42030;SDS011;27709;52.036;5.906;2023-12-04T10:21:00;14.77;;;8.43;;
42030;SDS011;27709;52.036;5.906;2023-12-04T10:23:39;15.27;;;7.97;;
42030;SDS011;27709;52.036;5.906;2023-12-04T10:26:06;13.80;;;8.10;;
42030;SDS011;27709;52.036;5.906;2023-12-04T10:28:33;15.25;;;8.98;;
42030;SDS011;27709;52.036;5.906;2023-12-04T10:30:59;14.80;;;8.85;;
42030;SDS011;27709;52.036;5.906;2023-12-04T10:33:25;13.90;;;8.30;;
42030;SDS011;27709;52.036;5.906;2023-12-04T10:35:52;14.45;;;8.40;;
42030;SDS011;27709;52.036;5.906;2023-12-04T10:38:18;12.75;;;7.90;;
42030;SDS011;27709;52.036;5.906;2023-12-04T10:40:44;14.98;;;8.65;;
42030;SDS011;27709;52.036;5.906;2023-12-04T10:43:19;13.60;;;8.10;;
42030;SDS011;27709;52.036;5.906;2023-12-04T10:45:47;14.95;;;8.73;;
42030;SDS011;27709;52.036;5.906;2023-12-04T10:48:14;13.25;;;7.43;;
42030;SDS011;27709;52.036;5.906;2023-12-04T10:50:42;15.13;;;8.60;;
42030;SDS011;27709;52.036;5.906;2023-12-04T10:53:09;13.38;;;8.13;;
42030;SDS011;27709;52.036;5.906;2023-12-04T10:55:37;13.93;;;7.63;;
42030;SDS011;27709;52.036;5.906;2023-12-04T10:58:05;16.50;;;8.85;;
42030;SDS011;27709;52.036;5.906;2023-12-04T11:00:36;15.48;;;8.43;;
42030;SDS011;27709;52.036;5.906;2023-12-04T11:03:10;14.88;;;8.65;;
42030;SDS011;27709;52.036;5.906;2023-12-04T11:05:42;16.52;;;8.75;;
42030;SDS011;27709;52.036;5.906;2023-12-04T11:08:11;14.73;;;8.50;;
42030;SDS011;27709;52.036;5.906;2023-12-04T11:10:53;13.98;;;8.25;;
42030;SDS011;27709;52.036;5.906;2023-12-04T11:13:26;12.98;;;7.90;;
42030;SDS011;27709;52.036;5.906;2023-12-04T11:19:04;15.52;;;9.00;;
42030;SDS011;27709;52.036;5.906;2023-12-04T11:21:58;13.20;;;7.57;;
42030;SDS011;27709;52.036;5.906;2023-12-04T11:24:24;13.00;;;7.63;;
42030;SDS011;27709;52.036;5.906;2023-12-04T11:26:50;14.00;;;7.47;;
42030;SDS011;27709;52.036;5.906;2023-12-04T11:29:17;12.43;;;7.28;;
42030;SDS011;27709;52.036;5.906;2023-12-04T11:31:44;11.63;;;6.90;;
42030;SDS011;27709;52.036;5.906;2023-12-04T11:34:11;13.80;;;8.18;;
42030;SDS011;27709;52.036;5.906;2023-12-04T11:36:37;12.63;;;7.70;;
42030;SDS011;27709;52.036;5.906;2023-12-04T11:39:03;13.32;;;7.47;;
42030;SDS011;27709;52.036;5.906;2023-12-04T11:41:34;14.10;;;7.78;;
42030;SDS011;27709;52.036;5.906;2023-12-04T11:44:00;13.05;;;7.20;;
42030;SDS011;27709;52.036;5.906;2023-12-04T11:46:26;14.55;;;7.65;;
42030;SDS011;27709;52.036;5.906;2023-12-04T11:48:54;15.30;;;7.82;;
42030;SDS011;27709;52.036;5.906;2023-12-04T11:54:07;13.00;;;7.38;;
42030;SDS011;27709;52.036;5.906;2023-12-04T11:56:33;15.05;;;7.38;;
42030;SDS011;27709;52.036;5.906;2023-12-04T11:59:03;12.80;;;7.43;;
42030;SDS011;27709;52.036;5.906;2023-12-04T12:01:32;11.70;;;6.65;;
42030;SDS011;27709;52.036;5.906;2023-12-04T12:03:59;12.90;;;7.32;;
42030;SDS011;27709;52.036;5.906;2023-12-04T12:06:26;13.32;;;7.47;;
42030;SDS011;27709;52.036;5.906;2023-12-04T12:08:52;12.73;;;7.22;;
42030;SDS011;27709;52.036;5.906;2023-12-04T12:11:19;13.57;;;6.90;;
42030;SDS011;27709;52.036;5.906;2023-12-04T12:13:45;12.30;;;7.20;;
42030;SDS011;27709;52.036;5.906;2023-12-04T12:16:10;13.27;;;7.50;;
42030;SDS011;27709;52.036;5.906;2023-12-04T12:18:36;11.82;;;7.25;;
42030;SDS011;27709;52.036;5.906;2023-12-04T12:21:02;13.45;;;7.70;;
42030;SDS011;27709;52.036;5.906;2023-12-04T12:23:28;11.73;;;7.07;;
42030;SDS011;27709;52.036;5.906;2023-12-04T12:25:54;14.07;;;7.68;;
42030;SDS011;27709;52.036;5.906;2023-12-04T12:28:20;11.90;;;7.22;;
42030;SDS011;27709;52.036;5.906;2023-12-04T12:30:45;12.93;;;7.25;;
42030;SDS011;27709;52.036;5.906;2023-12-04T12:33:14;12.15;;;7.22;;
42030;SDS011;27709;52.036;5.906;2023-12-04T12:35:41;13.10;;;7.45;;
42030;SDS011;27709;52.036;5.906;2023-12-04T12:38:07;12.32;;;7.35;;
42030;SDS011;27709;52.036;5.906;2023-12-04T12:40:33;12.45;;;6.57;;
42030;SDS011;27709;52.036;5.906;2023-12-04T12:43:03;13.02;;;7.45;;
42030;SDS011;27709;52.036;5.906;2023-12-04T12:45:42;11.13;;;6.90;;
42030;SDS011;27709;52.036;5.906;2023-12-04T12:48:14;13.00;;;7.10;;
42030;SDS011;27709;52.036;5.906;2023-12-04T12:50:44;12.18;;;6.63;;
42030;SDS011;27709;52.036;5.906;2023-12-04T12:53:13;12.18;;;7.18;;
42030;SDS011;27709;52.036;5.906;2023-12-04T12:55:42;14.50;;;8.07;;
42030;SDS011;27709;52.036;5.906;2023-12-04T12:58:08;14.05;;;7.95;;
42030;SDS011;27709;52.036;5.906;2023-12-04T13:00:34;11.07;;;6.57;;
42030;SDS011;27709;52.036;5.906;2023-12-04T13:03:00;12.38;;;6.68;;
42030;SDS011;27709;52.036;5.906;2023-12-04T13:05:26;13.23;;;7.03;;
42030;SDS011;27709;52.036;5.906;2023-12-04T13:07:52;12.38;;;6.57;;
42030;SDS011;27709;52.036;5.906;2023-12-04T13:10:19;12.68;;;7.97;;
42030;SDS011;27709;52.036;5.906;2023-12-04T13:12:45;12.88;;;7.20;;
42030;SDS011;27709;52.036;5.906;2023-12-04T13:15:10;14.27;;;8.25;;
42030;SDS011;27709;52.036;5.906;2023-12-04T13:17:36;14.35;;;7.22;;
42030;SDS011;27709;52.036;5.906;2023-12-04T13:20:01;16.08;;;8.15;;
42030;SDS011;27709;52.036;5.906;2023-12-04T13:22:35;12.60;;;7.45;;
42030;SDS011;27709;52.036;5.906;2023-12-04T13:25:01;11.95;;;7.53;;
42030;SDS011;27709;52.036;5.906;2023-12-04T13:27:27;12.93;;;7.45;;
42030;SDS011;27709;52.036;5.906;2023-12-04T13:29:53;13.15;;;7.70;;
42030;SDS011;27709;52.036;5.906;2023-12-04T13:32:19;11.73;;;7.18;;
42030;SDS011;27709;52.036;5.906;2023-12-04T13:34:45;12.63;;;7.65;;
42030;SDS011;27709;52.036;5.906;2023-12-04T13:37:11;14.52;;;7.18;;
42030;SDS011;27709;52.036;5.906;2023-12-04T13:39:37;10.77;;;6.63;;
42030;SDS011;27709;52.036;5.906;2023-12-04T13:42:16;14.07;;;7.35;;
42030;SDS011;27709;52.036;5.906;2023-12-04T13:45:01;13.63;;;7.88;;
42030;SDS011;27709;52.036;5.906;2023-12-04T13:47:29;12.95;;;7.97;;
42030;SDS011;27709;52.036;5.906;2023-12-04T13:49:54;13.10;;;6.93;;
42030;SDS011;27709;52.036;5.906;2023-12-04T13:52:20;14.25;;;8.57;;
42030;SDS011;27709;52.036;5.906;2023-12-04T13:54:48;12.90;;;7.88;;
42030;SDS011;27709;52.036;5.906;2023-12-04T13:57:14;13.60;;;7.90;;
42030;SDS011;27709;52.036;5.906;2023-12-04T13:59:52;13.15;;;7.35;;
42030;SDS011;27709;52.036;5.906;2023-12-04T14:02:18;12.45;;;7.40;;
42030;SDS011;27709;52.036;5.906;2023-12-04T14:04:43;15.40;;;8.18;;
42030;SDS011;27709;52.036;5.906;2023-12-04T14:07:09;14.60;;;8.43;;
42030;SDS011;27709;52.036;5.906;2023-12-04T14:09:36;13.25;;;7.85;;
42030;SDS011;27709;52.036;5.906;2023-12-04T14:12:02;14.20;;;7.35;;
42030;SDS011;27709;52.036;5.906;2023-12-04T14:14:28;14.18;;;8.60;;
42030;SDS011;27709;52.036;5.906;2023-12-04T14:16:54;14.30;;;8.43;;
42030;SDS011;27709;52.036;5.906;2023-12-04T14:19:19;13.60;;;7.80;;
42030;SDS011;27709;52.036;5.906;2023-12-04T14:21:46;11.15;;;7.05;;
42030;SDS011;27709;52.036;5.906;2023-12-04T14:24:15;15.48;;;8.57;;
42030;SDS011;27709;52.036;5.906;2023-12-04T14:26:41;14.63;;;8.15;;
42030;SDS011;27709;52.036;5.906;2023-12-04T14:29:07;15.13;;;8.20;;